Time;durP1;ratioP1;P1;durP2;ratioP2;P2;SDS_P1;SDS_P2;PMS_P1;PMS_P2;Temp;Humidity;BMP_temperature;BMP_pressure;BME280_temperature;BME280_humidity;BME280_pressure;Samples;Min_cycle;Max_cycle;Signal;HPM_P1;HPM_P2
2023/07/29 00:00:56;;;;;;;2.10;1.90;;;18.70;99.90;;;;;;4977924;28;20286;-86
2023/07/29 00:03:21;;;;;;;1.90;1.80;;;18.80;99.90;;;;;;4988098;28;20231;-87
2023/07/29 00:05:47;;;;;;;1.90;1.80;;;18.80;99.90;;;;;;4978544;28;20215;-86
2023/07/29 00:08:13;;;;;;;2.03;1.83;;;18.70;99.90;;;;;;4989397;28;20187;-86
2023/07/29 00:10:38;;;;;;;2.17;1.87;;;18.60;99.90;;;;;;4991330;28;20176;-87
2023/07/29 00:13:05;;;;;;;2.17;1.67;;;18.60;99.90;;;;;;4988777;28;20191;-87
2023/07/29 00:15:30;;;;;;;1.80;1.70;;;18.20;99.90;;;;;;4990096;28;20238;-87
2023/07/29 00:17:56;;;;;;;2.07;1.97;;;18.80;99.90;;;;;;4993494;28;20214;-87
2023/07/29 00:20:22;;;;;;;2.13;1.90;;;18.30;99.90;;;;;;4977416;28;20658;-86
2023/07/29 00:22:49;;;;;;;1.67;1.57;;;18.40;99.90;;;;;;4987547;28;20183;-87
2023/07/29 00:25:15;;;;;;;2.00;1.90;;;18.70;99.90;;;;;;4997264;28;20182;-86
2023/07/29 00:27:41;;;;;;;3.72;2.15;;;19.80;99.90;;;;;;4974512;28;20202;-86
2023/07/29 00:30:08;;;;;;;3.13;1.87;;;18.60;99.90;;;;;;4997251;28;20215;-86
2023/07/29 00:32:34;;;;;;;1.83;1.60;;;18.40;99.90;;;;;;4976734;28;20529;-86
2023/07/29 00:35:00;;;;;;;2.00;1.77;;;18.90;99.90;;;;;;4975029;28;20183;-88
2023/07/29 00:37:27;;;;;;;1.70;1.60;;;18.80;99.90;;;;;;4992797;28;20207;-86
2023/07/29 00:39:52;;;;;;;3.35;1.98;;;18.50;99.90;;;;;;4993110;28;20442;-86
2023/07/29 00:42:18;;;;;;;1.73;1.60;;;18.50;99.90;;;;;;4991105;28;20197;-86
2023/07/29 00:44:43;;;;;;;2.70;2.50;;;18.60;99.90;;;;;;5000239;28;20179;-87
2023/07/29 00:47:11;;;;;;;1.80;1.47;;;19.10;99.90;;;;;;4955589;28;1105895;-87
2023/07/29 00:49:36;;;;;;;2.30;1.40;;;19.80;99.90;;;;;;4982859;28;20214;-87
2023/07/29 00:52:02;;;;;;;1.90;1.70;;;19.00;99.90;;;;;;4977800;28;20535;-87
2023/07/29 00:54:28;;;;;;;2.00;1.90;;;18.60;99.90;;;;;;4977131;28;20254;-88
2023/07/29 00:56:53;;;;;;;1.93;1.30;;;19.10;99.90;;;;;;4996503;28;20520;-87
2023/07/29 00:59:19;;;;;;;3.60;1.90;;;18.60;99.90;;;;;;4978451;28;20676;-86
2023/07/29 01:01:45;;;;;;;2.20;2.00;;;18.50;99.90;;;;;;4975210;28;20186;-87
2023/07/29 01:04:10;;;;;;;1.77;1.67;;;18.70;99.90;;;;;;4999127;28;20193;-86
2023/07/29 01:06:55;;;;;;;1.73;1.60;;;18.90;99.90;;;;;;4994575;28;20200;-86
2023/07/29 01:09:45;;;;;;;2.10;1.90;;;18.80;99.90;;;;;;4992610;28;20268;-86
2023/07/29 01:12:24;;;;;;;2.72;1.80;;;18.60;99.90;;;;;;4991283;28;20230;-86
2023/07/29 01:14:54;;;;;;;2.55;2.22;;;18.40;99.90;;;;;;4971311;28;20175;-86
2023/07/29 01:17:24;;;;;;;2.00;1.80;;;18.50;99.90;;;;;;4978247;28;20734;-87
2023/07/29 01:20:05;;;;;;;2.58;2.15;;;18.90;99.90;;;;;;4996490;28;20217;-88
2023/07/29 01:22:33;;;;;;;3.42;3.13;;;18.70;99.90;;;;;;4992839;28;20222;-86
2023/07/29 01:24:59;;;;;;;2.22;1.92;;;19.10;99.90;;;;;;4998299;28;20184;-86
2023/07/29 01:27:26;;;;;;;2.72;1.70;;;19.00;99.90;;;;;;4976796;28;20215;-85
2023/07/29 01:29:52;;;;;;;1.60;1.50;;;18.70;99.90;;;;;;4979154;28;20653;-86
2023/07/29 01:32:32;;;;;;;2.05;1.95;;;19.10;99.90;;;;;;4982605;28;20636;-88
2023/07/29 01:35:24;;;;;;;2.17;2.08;;;18.70;99.90;;;;;;4979736;28;20546;-87
2023/07/29 01:37:59;;;;;;;3.80;1.70;;;18.80;99.90;;;;;;4987134;28;20235;-87
2023/07/29 01:40:27;;;;;;;2.00;1.80;;;18.70;99.90;;;;;;4980533;28;20266;-88
2023/07/29 01:42:53;;;;;;;2.92;1.75;;;19.00;99.90;;;;;;4980709;28;20184;-87
2023/07/29 01:45:19;;;;;;;2.60;1.53;;;19.10;99.90;;;;;;4984129;28;20205;-87
2023/07/29 01:47:44;;;;;;;1.73;1.63;;;19.00;99.90;;;;;;4995261;28;20484;-87
2023/07/29 01:50:10;;;;;;;2.07;1.87;;;19.10;99.90;;;;;;4992249;28;20212;-88
2023/07/29 01:52:35;;;;;;;2.47;1.73;;;18.70;99.90;;;;;;4997082;28;20183;-87
2023/07/29 01:55:02;;;;;;;2.53;1.90;;;19.00;99.90;;;;;;4997030;28;20438;-88
2023/07/29 01:57:27;;;;;;;2.10;1.90;;;19.20;99.90;;;;;;4994794;28;20259;-86
2023/07/29 01:59:53;;;;;;;1.80;1.70;;;18.70;99.90;;;;;;4995347;28;20637;-87
2023/07/29 02:02:18;;;;;;;1.97;1.87;;;19.20;99.90;;;;;;5000447;28;20242;-87
2023/07/29 02:04:45;;;;;;;2.00;1.60;;;19.10;99.90;;;;;;4997822;28;20215;-87
2023/07/29 02:07:10;;;;;;;1.95;1.75;;;19.10;99.90;;;;;;4995626;28;20222;-88
2023/07/29 02:09:36;;;;;;;2.40;1.90;;;19.20;99.90;;;;;;5000804;28;20511;-86
2023/07/29 02:12:02;;;;;;;2.40;1.67;;;19.10;99.90;;;;;;4996531;28;20199;-87
2023/07/29 02:14:28;;;;;;;2.20;2.00;;;18.90;99.90;;;;;;5000150;28;20908;-86
2023/07/29 02:16:53;;;;;;;2.60;1.70;;;19.20;99.90;;;;;;4982463;28;20204;-86
2023/07/29 02:19:19;;;;;;;1.83;1.73;;;19.20;99.90;;;;;;4996730;28;20199;-86
2023/07/29 02:21:44;;;;;;;2.03;1.93;;;19.10;99.90;;;;;;4984826;28;20265;-87
2023/07/29 02:24:10;;;;;;;2.07;1.77;;;19.10;99.90;;;;;;4976086;28;20205;-86
2023/07/29 02:26:35;;;;;;;4.37;1.60;;;19.10;99.90;;;;;;4998182;28;20207;-86
2023/07/29 02:29:01;;;;;;;3.80;2.00;;;18.80;99.90;;;;;;5000152;28;20222;-86
2023/07/29 02:31:27;;;;;;;1.60;1.50;;;19.00;99.90;;;;;;4995490;28;20238;-86
2023/07/29 02:33:52;;;;;;;2.80;1.90;;;18.80;99.90;;;;;;4980510;28;20187;-86
2023/07/29 02:36:18;;;;;;;2.47;1.80;;;19.00;99.90;;;;;;4999292;28;20981;-88
2023/07/29 02:38:44;;;;;;;1.77;1.57;;;19.00;99.90;;;;;;4992818;28;20198;-86
2023/07/29 02:41:12;;;;;;;1.80;1.70;;;19.00;99.90;;;;;;4988386;28;20277;-87
2023/07/29 02:43:37;;;;;;;2.08;1.88;;;19.00;99.90;;;;;;4989502;28;20183;-86
2023/07/29 02:46:03;;;;;;;2.70;1.90;;;19.00;99.90;;;;;;4991340;28;20261;-86
2023/07/29 02:48:29;;;;;;;2.60;2.40;;;19.00;99.90;;;;;;4996931;28;20227;-88
2023/07/29 02:50:55;;;;;;;1.70;1.60;;;18.40;99.90;;;;;;4992057;28;20254;-87
2023/07/29 02:53:22;;;;;;;4.30;1.85;;;18.80;99.90;;;;;;4992988;28;20190;-88
2023/07/29 02:55:47;;;;;;;2.30;1.90;;;18.70;99.90;;;;;;4972467;28;20208;-87
2023/07/29 02:58:13;;;;;;;2.17;1.80;;;18.90;99.90;;;;;;4990444;28;20648;-87
2023/07/29 03:00:41;;;;;;;1.90;1.80;;;18.70;99.90;;;;;;4993322;28;20181;-87
2023/07/29 03:03:07;;;;;;;2.15;1.90;;;18.80;99.90;;;;;;4977358;28;20223;-87
2023/07/29 03:05:33;;;;;;;2.22;1.80;;;18.40;99.90;;;;;;4991440;28;20191;-88
2023/07/29 03:07:59;;;;;;;4.20;2.43;;;18.40;99.90;;;;;;4977248;28;20183;-87
2023/07/29 03:10:24;;;;;;;2.00;1.83;;;18.60;99.90;;;;;;4993319;28;20684;-87
2023/07/29 03:12:50;;;;;;;1.80;1.70;;;18.90;99.90;;;;;;4976150;28;20211;-88
2023/07/29 03:15:16;;;;;;;2.40;1.90;;;18.80;99.90;;;;;;4980221;28;20531;-88
2023/07/29 03:17:41;;;;;;;2.80;1.60;;;18.50;99.90;;;;;;4996309;28;20455;-88
2023/07/29 03:20:07;;;;;;;2.10;2.00;;;18.90;99.90;;;;;;4994811;28;20199;-88
2023/07/29 03:22:33;;;;;;;2.53;1.95;;;18.50;99.90;;;;;;4989934;28;20188;-88
2023/07/29 03:24:59;;;;;;;1.90;1.80;;;18.80;99.90;;;;;;4998976;28;20202;-88
2023/07/29 03:27:24;;;;;;;2.20;2.00;;;18.80;99.90;;;;;;4997135;28;20215;-87
2023/07/29 03:29:50;;;;;;;2.50;2.07;;;18.80;99.90;;;;;;4979757;28;20232;-87
2023/07/29 03:32:15;;;;;;;2.17;2.00;;;18.90;99.90;;;;;;4985402;28;20359;-87
2023/07/29 03:34:41;;;;;;;2.07;1.80;;;18.90;99.90;;;;;;5000103;28;20537;-87
2023/07/29 03:37:06;;;;;;;1.90;1.70;;;18.90;99.90;;;;;;4997983;28;20230;-87
2023/07/29 03:39:32;;;;;;;1.87;1.73;;;18.90;99.90;;;;;;4989399;28;20752;-87
2023/07/29 03:41:58;;;;;;;2.00;1.90;;;18.50;99.90;;;;;;4994613;28;20202;-87
2023/07/29 03:44:23;;;;;;;1.83;1.73;;;18.50;99.90;;;;;;4992380;28;20191;-86
2023/07/29 03:46:49;;;;;;;1.80;1.70;;;18.50;99.90;;;;;;4986013;28;20482;-87
2023/07/29 03:49:14;;;;;;;2.63;2.30;;;18.60;99.90;;;;;;4992924;28;20210;-87
2023/07/29 03:51:40;;;;;;;6.13;1.93;;;18.80;99.90;;;;;;4994498;28;20556;-88
2023/07/29 03:54:06;;;;;;;1.70;1.60;;;18.90;99.90;;;;;;4994142;28;20184;-86
2023/07/29 03:56:32;;;;;;;2.13;1.97;;;18.50;99.90;;;;;;4980802;28;20302;-86
2023/07/29 03:59:05;;;;;;;2.10;1.90;;;18.90;99.90;;;;;;4975649;28;20450;-87
2023/07/29 04:01:30;;;;;;;1.80;1.70;;;18.90;99.90;;;;;;4996552;28;20199;-86
2023/07/29 04:03:56;;;;;;;2.17;2.00;;;19.10;99.90;;;;;;4995956;28;20244;-87
2023/07/29 04:06:22;;;;;;;2.53;1.77;;;18.90;99.90;;;;;;4979258;28;20208;-87
2023/07/29 04:08:48;;;;;;;2.10;1.88;;;19.10;99.90;;;;;;4986915;28;20187;-87
2023/07/29 04:11:13;;;;;;;2.50;2.30;;;19.10;99.90;;;;;;5015381;28;20187;-87
2023/07/29 04:13:39;;;;;;;4.30;1.53;;;19.00;99.90;;;;;;5013495;28;20369;-87
2023/07/29 04:16:05;;;;;;;2.20;2.00;;;19.10;99.90;;;;;;5012389;28;20910;-87
2023/07/29 04:18:30;;;;;;;1.93;1.83;;;19.10;99.90;;;;;;5014800;28;20304;-87
2023/07/29 04:20:56;;;;;;;2.73;2.23;;;18.90;99.90;;;;;;5006159;28;20195;-87
2023/07/29 04:23:21;;;;;;;2.07;1.87;;;19.20;99.90;;;;;;4991398;28;20541;-87
2023/07/29 04:25:47;;;;;;;2.23;2.03;;;19.00;99.90;;;;;;4995326;28;20210;-88
2023/07/29 04:28:13;;;;;;;1.83;1.73;;;19.30;99.90;;;;;;4993983;28;20183;-87
2023/07/29 04:30:38;;;;;;;3.10;2.33;;;18.90;99.90;;;;;;4992452;28;20179;-87
2023/07/29 04:33:04;;;;;;;2.03;1.83;;;19.10;99.90;;;;;;4992853;28;20242;-87
2023/07/29 04:35:29;;;;;;;2.63;2.20;;;19.30;99.90;;;;;;4991158;28;20230;-88
2023/07/29 04:37:55;;;;;;;2.23;2.03;;;19.40;99.90;;;;;;4980985;28;20615;-87
2023/07/29 04:40:22;;;;;;;2.63;2.03;;;19.00;99.90;;;;;;4973048;28;20310;-86
2023/07/29 04:42:47;;;;;;;2.13;1.92;;;19.30;99.90;;;;;;4974804;28;21795;-87
2023/07/29 04:45:13;;;;;;;3.90;2.20;;;19.30;99.90;;;;;;4991365;28;20442;-86
2023/07/29 04:47:39;;;;;;;2.80;2.00;;;19.00;99.90;;;;;;5015511;28;21364;-86
2023/07/29 04:50:06;;;;;;;2.90;2.60;;;18.90;99.90;;;;;;4995862;28;20207;-88
2023/07/29 04:52:31;;;;;;;2.90;1.90;;;18.80;99.90;;;;;;4991521;28;20245;-88
2023/07/29 04:54:57;;;;;;;3.30;2.20;;;19.20;99.90;;;;;;4989152;28;20548;-86
2023/07/29 04:57:22;;;;;;;6.13;2.43;;;18.80;99.90;;;;;;4972339;28;20211;-87
2023/07/29 04:59:48;;;;;;;2.33;2.00;;;19.10;99.90;;;;;;4982445;28;20565;-87
2023/07/29 05:02:13;;;;;;;2.73;2.43;;;18.50;99.90;;;;;;4994125;28;20217;-87
2023/07/29 05:04:39;;;;;;;3.93;2.10;;;19.10;99.90;;;;;;4973356;28;20205;-88
2023/07/29 05:07:04;;;;;;;4.80;2.60;;;19.20;99.90;;;;;;4993295;28;20263;-88
2023/07/29 05:09:30;;;;;;;2.70;2.50;;;18.90;99.90;;;;;;4992223;28;20651;-86
2023/07/29 05:11:55;;;;;;;3.20;2.50;;;19.20;99.90;;;;;;4967126;28;20326;-87
2023/07/29 05:14:21;;;;;;;2.17;1.97;;;18.90;99.90;;;;;;4976221;28;20652;-87
2023/07/29 05:16:47;;;;;;;2.63;2.43;;;19.30;99.90;;;;;;4972487;28;20207;-87
2023/07/29 05:19:13;;;;;;;3.28;2.97;;;18.90;99.90;;;;;;4975436;28;20179;-87
2023/07/29 05:21:39;;;;;;;6.23;2.40;;;18.90;99.90;;;;;;4990159;28;20190;-87
2023/07/29 05:24:05;;;;;;;3.88;2.35;;;19.40;99.90;;;;;;4975215;28;20233;-88
2023/07/29 05:26:30;;;;;;;2.07;1.97;;;19.50;99.90;;;;;;4993946;28;20208;-88
2023/07/29 05:28:56;;;;;;;3.83;2.30;;;19.50;99.90;;;;;;4976792;28;20207;-88
2023/07/29 05:31:22;;;;;;;3.50;3.00;;;19.40;99.90;;;;;;4993792;28;20277;-88
2023/07/29 05:33:48;;;;;;;2.88;2.60;;;19.20;99.90;;;;;;4983424;28;20185;-88
2023/07/29 05:36:14;;;;;;;2.50;2.17;;;19.20;99.90;;;;;;4992264;28;20202;-88
2023/07/29 05:38:39;;;;;;;3.90;2.50;;;19.60;99.90;;;;;;4995225;28;20718;-88
2023/07/29 05:41:05;;;;;;;2.30;2.10;;;19.70;99.90;;;;;;4977901;28;20242;-88
2023/07/29 05:43:30;;;;;;;4.73;2.53;;;19.60;99.90;;;;;;4977470;28;20278;-87
2023/07/29 05:45:56;;;;;;;2.97;2.67;;;19.70;99.90;;;;;;4981676;28;20238;-87
2023/07/29 05:48:21;;;;;;;3.17;2.60;;;20.00;99.90;;;;;;4977454;28;20199;-87
2023/07/29 05:50:47;;;;;;;3.80;2.77;;;19.80;99.90;;;;;;4980054;28;20190;-87
2023/07/29 05:53:14;;;;;;;2.88;2.42;;;19.80;99.90;;;;;;4979897;28;20219;-87
2023/07/29 05:55:39;;;;;;;2.95;2.75;;;20.30;99.90;;;;;;4998749;28;20190;-87
2023/07/29 05:58:05;;;;;;;2.63;2.43;;;20.20;99.90;;;;;;4996058;28;20190;-87
2023/07/29 06:00:31;;;;;;;3.00;2.70;;;20.30;99.90;;;;;;4994672;28;20195;-87
2023/07/29 06:02:56;;;;;;;3.07;2.87;;;20.50;99.90;;;;;;4993397;28;20439;-87
2023/07/29 06:05:22;;;;;;;3.40;2.70;;;20.40;99.90;;;;;;4980048;28;20191;-87
2023/07/29 06:07:48;;;;;;;2.83;2.63;;;20.70;99.90;;;;;;4978667;28;20757;-87
2023/07/29 06:10:18;;;;;;;3.13;2.83;;;20.30;99.90;;;;;;4999598;28;20774;-87
2023/07/29 06:12:45;;;;;;;2.97;2.78;;;20.50;99.90;;;;;;4998724;28;20266;-88
2023/07/29 06:15:11;;;;;;;3.45;2.60;;;20.70;99.90;;;;;;4989094;28;20191;-87
2023/07/29 06:17:37;;;;;;;2.75;2.35;;;20.70;99.90;;;;;;4996231;28;20203;-86
2023/07/29 06:20:03;;;;;;;3.58;2.40;;;21.00;99.90;;;;;;4997788;28;20191;-87
2023/07/29 06:22:29;;;;;;;2.42;2.10;;;20.90;99.90;;;;;;4994528;28;20199;-86
2023/07/29 06:24:54;;;;;;;2.50;2.20;;;21.50;99.90;;;;;;4998267;28;20191;-86
2023/07/29 06:27:20;;;;;;;3.30;2.40;;;21.10;99.90;;;;;;4989965;28;20222;-86
2023/07/29 06:29:45;;;;;;;2.97;2.00;;;21.70;99.90;;;;;;4970809;28;20306;-86
2023/07/29 06:32:11;;;;;;;3.50;2.20;;;21.70;99.90;;;;;;4976104;28;20266;-88
2023/07/29 06:34:36;;;;;;;2.57;2.00;;;21.50;99.90;;;;;;4994546;28;20184;-85
2023/07/29 06:37:02;;;;;;;4.80;2.73;;;21.40;99.90;;;;;;4975606;28;20275;-87
2023/07/29 06:39:27;;;;;;;3.30;2.73;;;21.80;99.90;;;;;;4979049;28;20244;-87
2023/07/29 06:41:53;;;;;;;2.47;2.27;;;21.90;99.90;;;;;;4980848;28;20184;-87
2023/07/29 06:44:19;;;;;;;2.30;2.10;;;21.70;99.90;;;;;;4988319;28;20195;-87
2023/07/29 06:46:44;;;;;;;2.40;2.20;;;21.40;99.90;;;;;;5000700;28;20296;-87
2023/07/29 06:49:10;;;;;;;2.30;2.10;;;21.50;99.90;;;;;;5015615;28;20643;-88
2023/07/29 06:51:38;;;;;;;2.37;2.17;;;21.80;99.90;;;;;;4997141;28;20192;-88
2023/07/29 06:54:04;;;;;;;2.28;2.08;;;21.90;99.90;;;;;;4992183;28;20207;-88
2023/07/29 06:56:31;;;;;;;2.33;2.13;;;21.70;99.90;;;;;;4992353;28;20267;-88
2023/07/29 06:58:56;;;;;;;1.80;1.70;;;21.40;99.90;;;;;;4976604;28;20487;-88
2023/07/29 07:01:22;;;;;;;3.10;1.93;;;21.60;99.90;;;;;;4978347;28;20523;-88
2023/07/29 07:03:47;;;;;;;2.13;2.00;;;21.60;99.90;;;;;;4994003;28;20687;-85
2023/07/29 07:06:13;;;;;;;2.77;2.20;;;21.10;99.90;;;;;;4975136;28;20253;-86
2023/07/29 07:08:38;;;;;;;2.17;1.97;;;21.40;99.90;;;;;;4990860;28;20318;-87
2023/07/29 07:11:04;;;;;;;2.57;2.17;;;21.30;99.90;;;;;;4986491;28;20636;-86
2023/07/29 07:13:29;;;;;;;3.10;1.93;;;21.20;99.90;;;;;;4988253;28;20194;-88
2023/07/29 07:15:56;;;;;;;1.97;1.87;;;21.00;99.90;;;;;;4989961;28;20298;-86
2023/07/29 07:18:24;;;;;;;4.07;1.90;;;21.10;99.90;;;;;;4971780;28;20192;-85
2023/07/29 07:20:50;;;;;;;1.80;1.70;;;20.50;99.90;;;;;;4990931;28;20194;-86
2023/07/29 07:23:16;;;;;;;2.03;1.92;;;20.80;99.90;;;;;;4987939;28;20529;-88
2023/07/29 07:25:42;;;;;;;2.22;1.40;;;20.80;99.90;;;;;;4992626;28;20175;-85
2023/07/29 07:28:08;;;;;;;2.03;1.40;;;20.60;99.90;;;;;;4996586;28;20383;-89
2023/07/29 07:30:34;;;;;;;2.72;1.70;;;20.60;99.90;;;;;;4990860;28;20211;-87
2023/07/29 07:32:59;;;;;;;1.43;1.33;;;20.70;99.90;;;;;;4978212;28;20182;-86
2023/07/29 07:35:25;;;;;;;1.70;1.60;;;20.70;99.90;;;;;;4975835;28;20307;-88
2023/07/29 07:37:50;;;;;;;1.90;1.50;;;20.50;99.90;;;;;;4973367;28;20401;-87
2023/07/29 07:40:16;;;;;;;1.83;1.63;;;21.00;99.90;;;;;;4978135;28;20183;-87
2023/07/29 07:42:41;;;;;;;3.13;1.83;;;21.10;99.90;;;;;;4994704;28;20196;-86
2023/07/29 07:45:07;;;;;;;2.30;1.80;;;21.20;99.90;;;;;;4996796;28;20187;-87
2023/07/29 07:47:33;;;;;;;2.20;2.00;;;20.80;99.90;;;;;;4975635;28;20333;-87
2023/07/29 07:49:58;;;;;;;2.30;2.10;;;21.30;99.90;;;;;;4991996;28;20222;-87
2023/07/29 07:52:24;;;;;;;2.30;2.10;;;20.90;99.90;;;;;;4970957;28;20234;-86
2023/07/29 07:54:53;;;;;;;3.40;2.10;;;21.20;99.90;;;;;;4967497;28;20278;-86
2023/07/29 07:57:20;;;;;;;2.10;1.80;;;21.30;99.90;;;;;;4970537;28;20199;-87
2023/07/29 07:59:46;;;;;;;1.90;1.80;;;21.00;99.90;;;;;;4974282;28;20222;-86
2023/07/29 08:02:11;;;;;;;4.77;2.20;;;21.30;99.90;;;;;;4985654;28;20640;-87
2023/07/29 08:04:37;;;;;;;3.40;1.87;;;21.70;99.90;;;;;;4972957;28;20703;-86
2023/07/29 08:07:03;;;;;;;2.00;1.90;;;21.80;99.90;;;;;;4974438;28;20570;-87
2023/07/29 08:09:28;;;;;;;1.93;1.73;;;21.80;99.90;;;;;;4992760;28;20302;-90
2023/07/29 08:11:53;;;;;;;2.40;1.87;;;22.10;99.90;;;;;;4997544;28;20611;-88
2023/07/29 08:14:19;;;;;;;1.83;1.70;;;21.80;99.90;;;;;;4991760;28;20183;-87
2023/07/29 08:16:44;;;;;;;1.80;1.60;;;22.20;99.90;;;;;;4979983;28;20294;-86
2023/07/29 08:19:10;;;;;;;2.00;1.57;;;22.30;99.90;;;;;;4994267;28;20191;-87
2023/07/29 08:21:36;;;;;;;1.57;1.23;;;23.00;99.90;;;;;;4977539;28;20652;-89
2023/07/29 08:24:01;;;;;;;1.43;1.33;;;23.20;99.90;;;;;;4989698;28;20187;-88
2023/07/29 08:26:27;;;;;;;2.00;1.47;;;22.90;99.90;;;;;;4977649;28;20211;-89
2023/07/29 08:28:52;;;;;;;1.87;1.33;;;23.30;99.90;;;;;;4992984;28;20287;-88
2023/07/29 08:31:18;;;;;;;1.40;1.30;;;24.10;99.90;;;;;;4990757;28;20318;-92
2023/07/29 08:33:43;;;;;;;1.90;1.40;;;23.50;99.90;;;;;;4994000;28;20696;-87
2023/07/29 08:36:09;;;;;;;1.63;1.23;;;23.20;99.90;;;;;;4990888;28;20912;-86
2023/07/29 08:38:35;;;;;;;1.90;1.40;;;23.20;99.90;;;;;;4974447;28;20311;-86
2023/07/29 08:41:12;;;;;;;2.03;1.50;;;23.40;99.90;;;;;;4995619;28;20675;-87
2023/07/29 08:43:41;;;;;;;1.20;1.10;;;23.20;99.90;;;;;;4992624;28;20191;-86
2023/07/29 08:46:07;;;;;;;1.40;1.30;;;23.70;99.90;;;;;;4994648;28;20466;-86
2023/07/29 08:48:40;;;;;;;1.40;1.30;;;23.80;99.90;;;;;;4989428;28;20453;-84
2023/07/29 08:51:08;;;;;;;1.33;1.17;;;23.90;99.90;;;;;;4999353;28;20195;-84
2023/07/29 08:53:34;;;;;;;1.63;1.53;;;24.10;99.90;;;;;;4992870;28;20448;-86
2023/07/29 08:56:01;;;;;;;1.70;1.60;;;25.70;99.90;;;;;;4977907;28;20466;-86
2023/07/29 08:58:27;;;;;;;1.50;1.40;;;27.30;99.90;;;;;;4976568;28;20458;-85
2023/07/29 09:00:52;;;;;;;1.17;1.07;;;28.30;99.90;;;;;;4971252;28;20538;-85
2023/07/29 09:03:19;;;;;;;1.17;1.07;;;29.30;97.90;;;;;;4981414;28;20876;-86
2023/07/29 09:05:46;;;;;;;1.40;1.30;;;29.50;96.80;;;;;;4998368;28;20272;-86
2023/07/29 09:08:12;;;;;;;1.67;1.40;;;29.30;96.00;;;;;;4996430;28;20503;-87
2023/07/29 09:10:38;;;;;;;1.50;1.17;;;29.40;96.00;;;;;;4995764;28;20473;-87
2023/07/29 09:13:05;;;;;;;1.77;1.27;;;29.00;96.30;;;;;;5000818;28;20453;-86
2023/07/29 09:15:33;;;;;;;1.60;1.50;;;28.70;97.30;;;;;;5001257;28;20195;-86
2023/07/29 09:18:08;;;;;;;2.70;1.30;;;27.80;98.30;;;;;;4991434;28;20446;-86
2023/07/29 09:20:34;;;;;;;2.60;1.43;;;27.80;99.70;;;;;;4994474;28;20816;-86
2023/07/29 09:23:00;;;;;;;1.53;1.43;;;27.50;99.90;;;;;;4993226;28;20463;-85
2023/07/29 09:25:30;;;;;;;1.30;1.20;;;27.00;99.90;;;;;;4995687;28;20183;-85
2023/07/29 09:28:00;;;;;;;2.17;1.87;;;26.90;99.90;;;;;;4992375;28;20448;-86
2023/07/29 09:30:27;;;;;;;2.20;1.60;;;27.10;99.90;;;;;;4991821;28;20536;-92
2023/07/29 09:32:55;;;;;;;5.23;1.80;;;27.80;99.90;;;;;;4992689;28;20457;-89
2023/07/29 09:35:21;;;;;;;1.97;1.47;;;27.70;99.00;;;;;;4996731;28;20770;-89
2023/07/29 09:37:47;;;;;;;2.90;1.43;;;27.80;98.50;;;;;;4997328;28;20806;-88
2023/07/29 09:40:17;;;;;;;2.77;1.60;;;28.10;99.00;;;;;;4997416;28;20617;-87
2023/07/29 09:42:51;;;;;;;1.60;1.50;;;27.30;98.90;;;;;;4977031;28;20452;-87
2023/07/29 09:45:24;;;;;;;2.07;1.83;;;27.10;99.80;;;;;;4977982;28;20450;-88
2023/07/29 09:47:51;;;;;;;1.50;1.40;;;27.00;99.90;;;;;;4977252;28;20809;-88
2023/07/29 09:50:17;;;;;;;1.80;1.30;;;27.10;99.40;;;;;;4983152;28;20477;-87
2023/07/29 09:52:44;;;;;;;1.63;1.40;;;27.30;98.20;;;;;;4976901;28;20560;-88
2023/07/29 09:55:14;;;;;;;1.63;1.53;;;27.30;97.90;;;;;;4985094;28;20452;-88
2023/07/29 09:57:40;;;;;;;1.63;1.53;;;27.70;97.80;;;;;;4994316;28;20469;-88
2023/07/29 10:00:10;;;;;;;1.50;1.40;;;27.80;97.80;;;;;;4981396;28;20451;-88
2023/07/29 10:02:37;;;;;;;1.73;1.63;;;27.80;97.20;;;;;;4979013;28;20512;-89
2023/07/29 10:05:04;;;;;;;1.73;1.63;;;28.90;96.00;;;;;;4996295;28;20441;-89
2023/07/29 10:07:30;;;;;;;2.37;2.10;;;29.40;93.80;;;;;;4982930;28;20472;-89
2023/07/29 10:09:57;;;;;;;1.70;1.60;;;31.10;91.70;;;;;;4996236;28;21003;-89
2023/07/29 10:12:24;;;;;;;2.07;1.97;;;32.10;90.10;;;;;;4981708;28;20460;-88
2023/07/29 10:14:50;;;;;;;1.67;1.57;;;32.40;85.50;;;;;;4979240;28;20570;-89
2023/07/29 10:17:16;;;;;;;1.77;1.40;;;32.40;85.00;;;;;;4979949;28;20480;-89
2023/07/29 10:19:44;;;;;;;1.83;1.73;;;31.90;83.40;;;;;;5001402;28;20447;-89
2023/07/29 10:22:11;;;;;;;2.93;1.97;;;31.60;84.50;;;;;;4977435;28;20798;-89
2023/07/29 10:24:41;;;;;;;2.63;1.63;;;31.30;86.20;;;;;;4999980;28;20591;-89
2023/07/29 10:27:08;;;;;;;1.80;1.70;;;30.60;87.50;;;;;;4994337;28;20472;-88
2023/07/29 10:29:42;;;;;;;2.23;1.70;;;30.10;86.50;;;;;;4992247;28;20470;-89
2023/07/29 10:32:10;;;;;;;2.10;1.87;;;29.90;86.50;;;;;;4993194;28;20449;-88
2023/07/29 10:34:36;;;;;;;1.70;1.60;;;29.30;84.90;;;;;;4998992;28;20466;-89
2023/07/29 10:37:02;;;;;;;1.70;1.60;;;29.00;87.80;;;;;;4975284;28;21045;-89
2023/07/29 10:39:42;;;;;;;1.80;1.70;;;28.80;88.20;;;;;;4994720;28;20477;-88
2023/07/29 10:42:08;;;;;;;1.93;1.83;;;28.70;87.60;;;;;;5002411;28;20474;-88
2023/07/29 10:44:39;;;;;;;1.90;1.80;;;28.70;88.30;;;;;;4991127;28;20446;-90
2023/07/29 10:47:32;;;;;;;1.90;1.47;;;28.70;90.70;;;;;;4995277;28;20599;-89
2023/07/29 10:49:59;;;;;;;3.80;1.63;;;28.80;90.00;;;;;;4998080;28;20825;-87
2023/07/29 10:52:33;;;;;;;1.70;1.60;;;29.20;91.90;;;;;;4981010;28;20480;-87
2023/07/29 10:54:59;;;;;;;1.80;1.70;;;28.10;92.10;;;;;;4999630;28;20468;-87
2023/07/29 10:57:31;;;;;;;3.73;1.70;;;27.80;95.20;;;;;;4980795;28;20562;-88
2023/07/29 10:59:57;;;;;;;3.53;2.87;;;27.80;96.60;;;;;;4997720;28;20458;-87
2023/07/29 11:02:33;;;;;;;2.50;2.30;;;28.30;96.40;;;;;;5001478;28;20450;-89
2023/07/29 11:04:59;;;;;;;1.63;1.53;;;27.60;95.60;;;;;;4981263;28;20484;-89
2023/07/29 11:07:26;;;;;;;3.50;3.20;;;28.10;95.00;;;;;;4996349;28;20852;-88
2023/07/29 11:09:55;;;;;;;2.93;2.20;;;28.30;96.00;;;;;;4998232;28;20462;-87
2023/07/29 11:12:43;;;;;;;1.97;1.87;;;28.30;95.50;;;;;;4977521;28;20447;-88
2023/07/29 11:15:16;;;;;;;2.80;2.13;;;27.50;94.90;;;;;;4990465;28;20448;-88
2023/07/29 11:17:47;;;;;;;3.77;2.43;;;27.50;94.50;;;;;;4993002;28;20469;-87
2023/07/29 11:20:14;;;;;;;1.70;1.60;;;27.50;94.40;;;;;;4995069;28;20468;-89
2023/07/29 11:22:39;;;;;;;2.43;1.50;;;28.50;94.50;;;;;;4999495;28;20855;-88
2023/07/29 11:25:07;;;;;;;3.93;1.70;;;27.40;93.50;;;;;;4991577;28;20456;-88
2023/07/29 11:27:33;;;;;;;2.90;1.60;;;27.40;92.90;;;;;;4977288;28;20230;-89
2023/07/29 11:30:00;;;;;;;1.80;1.70;;;27.80;93.60;;;;;;4978122;28;20957;-88
2023/07/29 11:32:26;;;;;;;2.13;2.03;;;27.30;94.90;;;;;;4997473;28;20212;-88
2023/07/29 11:34:51;;;;;;;2.23;2.03;;;28.10;94.80;;;;;;4982119;28;21023;-88
2023/07/29 11:37:17;;;;;;;2.10;1.90;;;27.60;94.70;;;;;;4980852;28;20460;-87
2023/07/29 11:39:44;;;;;;;2.63;2.40;;;27.60;94.20;;;;;;4996825;28;20287;-88
2023/07/29 11:42:13;;;;;;;2.37;2.10;;;27.40;94.50;;;;;;5004789;28;20204;-88
2023/07/29 11:44:39;;;;;;;2.00;1.80;;;27.30;94.20;;;;;;4998733;28;20485;-88
2023/07/29 11:47:12;;;;;;;2.10;1.90;;;27.80;94.00;;;;;;4999700;28;20517;-88
2023/07/29 11:49:41;;;;;;;2.43;2.23;;;27.20;94.20;;;;;;4996641;28;20279;-88
2023/07/29 11:52:08;;;;;;;1.43;1.33;;;27.30;94.20;;;;;;5003871;28;20566;-89
2023/07/29 11:54:35;;;;;;;2.10;1.60;;;27.30;93.40;;;;;;5003114;28;20971;-87
2023/07/29 11:57:01;;;;;;;2.60;2.40;;;27.40;93.10;;;;;;5002742;28;20490;-89
2023/07/29 11:59:28;;;;;;;1.63;1.53;;;28.30;92.90;;;;;;5003289;28;20455;-87
2023/07/29 12:01:53;;;;;;;7.93;7.30;;;28.80;91.30;;;;;;4991909;28;20372;-87
2023/07/29 12:04:19;;;;;;;2.83;1.87;;;29.10;91.30;;;;;;4987418;28;20830;-88
2023/07/29 12:06:45;;;;;;;1.97;1.83;;;29.70;91.30;;;;;;4993417;28;20213;-89
2023/07/29 12:09:13;;;;;;;4.60;2.10;;;28.70;91.80;;;;;;4984785;28;20231;-88
2023/07/29 12:11:38;;;;;;;2.37;1.97;;;28.30;91.90;;;;;;5001528;28;20190;-89
2023/07/29 12:14:07;;;;;;;2.07;1.97;;;28.60;92.20;;;;;;4992015;28;20455;-88
2023/07/29 12:16:43;;;;;;;2.53;2.33;;;28.50;90.40;;;;;;4997023;28;20213;-89
2023/07/29 12:19:11;;;;;;;3.90;3.10;;;28.20;90.80;;;;;;5000558;28;20456;-88
2023/07/29 12:21:37;;;;;;;2.60;2.40;;;28.20;90.20;;;;;;4999013;28;20451;-88
2023/07/29 12:24:03;;;;;;;1.80;1.70;;;28.20;90.80;;;;;;4992196;28;20466;-89
2023/07/29 12:26:29;;;;;;;2.00;1.80;;;28.10;90.30;;;;;;4978134;28;20219;-89
2023/07/29 12:28:56;;;;;;;1.90;1.80;;;28.50;90.70;;;;;;4994706;28;20479;-89
2023/07/29 12:31:27;;;;;;;3.60;1.80;;;28.80;90.90;;;;;;4981869;28;20447;-89
2023/07/29 12:33:56;;;;;;;1.83;1.73;;;28.50;90.20;;;;;;4986867;28;20971;-88
2023/07/29 12:36:21;;;;;;;2.27;2.10;;;28.30;90.30;;;;;;4974642;28;20552;-88
2023/07/29 12:38:47;;;;;;;2.70;2.50;;;29.10;91.00;;;;;;4978880;28;20540;-89
2023/07/29 12:41:12;;;;;;;2.20;2.00;;;28.90;90.90;;;;;;4976657;28;20577;-89
2023/07/29 12:43:38;;;;;;;3.80;2.40;;;28.50;88.80;;;;;;4993475;28;20191;-90
2023/07/29 12:46:04;;;;;;;3.73;2.57;;;28.20;89.60;;;;;;4973227;28;20213;-88